createdAt,value
2023-02-15T00:00:14.951Z,2.61
2023-02-15T00:03:02.938Z,2.64
2023-02-15T00:05:32.155Z,2.67
2023-02-15T00:08:00.125Z,2.74
2023-02-15T00:10:28.119Z,2.81
2023-02-15T00:12:56.065Z,2.86
2023-02-15T00:15:24.099Z,2.89
2023-02-15T00:17:52.132Z,2.88
2023-02-15T00:20:20.213Z,2.87
2023-02-15T00:22:48.191Z,2.87
2023-02-15T00:25:16.141Z,2.86
2023-02-15T00:27:44.068Z,2.87
2023-02-15T00:30:12.580Z,2.92
2023-02-15T00:32:40.511Z,2.93
2023-02-15T00:35:08.559Z,2.90
2023-02-15T00:37:36.620Z,2.87
2023-02-15T00:40:05.245Z,2.86
2023-02-15T00:42:33.242Z,2.84
2023-02-15T00:45:01.247Z,2.81
2023-02-15T00:47:30.112Z,2.78
2023-02-15T00:49:58.119Z,2.75
2023-02-15T00:52:26.068Z,2.78
2023-02-15T00:54:53.959Z,2.73
2023-02-15T00:57:21.913Z,2.77
2023-02-15T00:59:50.712Z,2.73
2023-02-15T01:02:18.656Z,2.69
2023-02-15T01:04:48.495Z,2.66
2023-02-15T01:07:17.857Z,2.64
2023-02-15T01:09:45.828Z,2.63
2023-02-15T01:12:13.780Z,2.65
2023-02-15T01:14:42.101Z,2.65
2023-02-15T01:17:10.179Z,2.59
2023-02-15T01:19:38.180Z,2.54
2023-02-15T01:22:08.288Z,2.48
2023-02-15T01:24:37.525Z,2.46
2023-02-15T01:31:50.387Z,2.47
2023-02-15T01:34:18.398Z,2.48
2023-02-15T01:36:46.346Z,2.46
2023-02-15T01:39:16.546Z,2.42
2023-02-15T01:41:44.705Z,2.37
2023-02-15T01:44:50.394Z,2.33
2023-02-15T01:50:18.788Z,2.27
2023-02-15T01:53:14.052Z,2.27
2023-02-15T01:55:51.596Z,2.26
2023-02-15T01:58:20.341Z,2.22
2023-02-15T02:00:48.355Z,2.21
2023-02-15T02:03:16.676Z,2.17
2023-02-15T02:05:44.815Z,2.18
2023-02-15T02:08:14.262Z,2.20
2023-02-15T02:10:42.289Z,2.20
2023-02-15T02:13:10.235Z,2.19
2023-02-15T02:15:55.373Z,2.15
2023-02-15T02:19:18.975Z,2.10
2023-02-15T02:21:55.704Z,2.03
2023-02-15T02:24:38.845Z,2.05
2023-02-15T02:27:18.775Z,2.05
2023-02-15T02:30:07.780Z,2.02
2023-02-15T02:33:00.709Z,2.04
2023-02-15T02:35:43.726Z,2.04
2023-02-15T02:38:32.711Z,2.03
2023-02-15T02:41:32.409Z,2.01
2023-02-15T02:44:20.902Z,2.00
2023-02-15T02:46:59.055Z,2.00
2023-02-15T02:49:41.273Z,2.00
2023-02-15T02:52:44.831Z,1.99
2023-02-15T02:55:22.938Z,1.94
2023-02-15T02:58:14.178Z,1.92
2023-02-15T03:01:06.848Z,1.87
2023-02-15T03:03:41.917Z,1.84
2023-02-15T03:06:48.073Z,1.85
2023-02-15T03:09:25.300Z,1.86
2023-02-15T03:11:53.225Z,1.86
2023-02-15T03:14:22.507Z,1.88
2023-02-15T03:16:52.785Z,1.86
2023-02-15T03:19:31.963Z,1.81
2023-02-15T03:22:20.414Z,1.77
2023-02-15T03:25:11.961Z,1.74
2023-02-15T03:27:48.311Z,1.72
2023-02-15T03:30:19.632Z,1.69
2023-02-15T03:33:36.517Z,1.66
2023-02-15T03:38:08.110Z,1.57
2023-02-15T03:42:20.822Z,1.51
2023-02-15T03:45:10.652Z,1.53
2023-02-15T03:47:44.246Z,1.55
2023-02-15T03:50:42.497Z,1.56
2023-02-15T03:53:17.747Z,1.55
2023-02-15T03:55:55.554Z,1.51
2023-02-15T03:58:41.944Z,1.45
2023-02-15T04:01:44.152Z,1.43
2023-02-15T04:04:25.253Z,1.43
2023-02-15T04:06:53.592Z,1.43
2023-02-15T04:09:40.094Z,1.43
2023-02-15T04:12:08.342Z,1.42
2023-02-15T04:14:55.125Z,1.36
2023-02-15T04:17:23.131Z,1.46
2023-02-15T04:20:09.496Z,1.48
2023-02-15T04:22:55.807Z,1.49
2023-02-15T04:25:23.817Z,1.47
2023-02-15T04:27:56.307Z,1.45
2023-02-15T04:30:26.483Z,1.44
2023-02-15T04:32:55.825Z,1.45
2023-02-15T04:35:23.820Z,1.46
2023-02-15T04:37:51.898Z,1.50
2023-02-15T04:40:19.954Z,1.54
2023-02-15T04:42:50.994Z,1.53
2023-02-15T04:45:18.988Z,1.52
2023-02-15T04:47:47.037Z,1.50
2023-02-15T04:50:15.093Z,1.51
2023-02-15T04:52:42.990Z,1.52
2023-02-15T04:55:11.171Z,1.54
2023-02-15T04:57:39.231Z,1.57
2023-02-15T05:00:07.720Z,1.57
2023-02-15T05:02:35.642Z,1.57
2023-02-15T05:05:03.674Z,1.55
2023-02-15T05:07:31.587Z,1.52
2023-02-15T05:09:59.485Z,1.53
2023-02-15T05:12:27.376Z,1.55
2023-02-15T05:14:55.395Z,1.57
2023-02-15T05:17:23.635Z,1.58
2023-02-15T05:19:51.598Z,1.55
2023-02-15T05:22:19.553Z,1.49
2023-02-15T05:25:06.238Z,1.46
2023-02-15T05:27:53.013Z,1.47
2023-02-15T05:30:21.242Z,1.51
2023-02-15T05:32:49.268Z,1.53
2023-02-15T05:35:19.049Z,1.50
2023-02-15T05:37:46.976Z,1.45
2023-02-15T05:40:14.954Z,1.43
2023-02-15T05:42:42.887Z,1.41
2023-02-15T05:45:11.111Z,1.43
2023-02-15T05:47:39.118Z,1.47
2023-02-15T05:50:07.572Z,1.50
2023-02-15T05:52:35.870Z,1.50
2023-02-15T05:55:05.283Z,1.48
2023-02-15T05:57:33.380Z,1.47
2023-02-15T06:00:01.657Z,1.48
2023-02-15T06:02:42.447Z,1.50
2023-02-15T06:05:10.636Z,1.51
2023-02-15T06:07:38.833Z,1.51
2023-02-15T06:10:07.512Z,1.52
2023-02-15T06:12:35.418Z,1.52
2023-02-15T06:15:04.483Z,1.51
2023-02-15T06:17:32.833Z,1.52
2023-02-15T06:20:00.837Z,1.54
2023-02-15T06:22:28.758Z,1.54
2023-02-15T06:24:57.086Z,1.53
2023-02-15T06:27:24.959Z,1.54
2023-02-15T06:29:52.983Z,1.50
2023-02-15T06:32:20.974Z,1.47
2023-02-15T06:34:48.991Z,1.46
2023-02-15T06:37:17.022Z,1.47
2023-02-15T06:39:45.545Z,1.48
2023-02-15T06:42:13.729Z,1.49
2023-02-15T06:44:41.683Z,1.48
2023-02-15T06:47:09.609Z,1.45
2023-02-15T06:49:38.382Z,1.45
2023-02-15T06:52:06.937Z,1.48
2023-02-15T06:54:34.992Z,1.55
2023-02-15T06:57:02.908Z,1.57
2023-02-15T06:59:30.850Z,1.57
2023-02-15T07:01:58.813Z,1.57
2023-02-15T07:04:26.875Z,1.57
2023-02-15T07:06:54.814Z,1.57
2023-02-15T07:09:23.585Z,1.61
2023-02-15T07:12:10.319Z,1.67
2023-02-15T07:14:38.237Z,1.74
2023-02-15T07:17:11.705Z,1.79
2023-02-15T07:19:42.655Z,1.80
2023-02-15T07:22:10.670Z,1.78
2023-02-15T07:24:38.639Z,1.78
2023-02-15T07:27:08.679Z,1.79
2023-02-15T07:29:36.612Z,1.84
2023-02-15T07:32:04.568Z,1.87
2023-02-15T07:34:32.639Z,1.90
2023-02-15T07:37:00.586Z,1.92
2023-02-15T07:39:28.484Z,1.95
2023-02-15T07:41:56.367Z,2.02
2023-02-15T07:44:27.567Z,2.10
2023-02-15T07:46:55.565Z,2.12
2023-02-15T07:49:24.193Z,2.09
2023-02-15T07:51:52.495Z,2.10
2023-02-15T07:54:20.463Z,2.07
2023-02-15T07:56:48.342Z,2.05
2023-02-15T07:59:16.230Z,2.07
2023-02-15T08:01:44.132Z,2.12
2023-02-15T08:04:12.220Z,2.15
2023-02-15T08:06:40.216Z,2.15
2023-02-15T08:09:11.514Z,2.16
2023-02-15T08:11:41.917Z,2.19
2023-02-15T08:14:11.139Z,2.20
2023-02-15T08:16:57.402Z,2.25
2023-02-15T08:19:26.504Z,2.36
2023-02-15T08:22:06.609Z,2.44
2023-02-15T08:24:38.384Z,2.51
2023-02-15T08:27:08.419Z,2.55
2023-02-15T08:29:38.505Z,2.59
2023-02-15T08:32:10.544Z,2.67
2023-02-15T08:34:43.413Z,2.77
2023-02-15T08:37:11.401Z,2.81
2023-02-15T08:39:39.327Z,2.83
2023-02-15T08:42:07.271Z,2.82
2023-02-15T08:44:35.147Z,2.84
2023-02-15T08:47:05.001Z,2.92
2023-02-15T08:49:33.437Z,2.99
2023-02-15T08:52:07.470Z,3.07
2023-02-15T08:54:35.590Z,3.14
2023-02-15T08:57:03.526Z,3.15
2023-02-15T08:59:31.488Z,3.18
2023-02-15T09:01:59.480Z,3.27
2023-02-15T09:04:27.340Z,3.35
2023-02-15T09:06:56.204Z,3.45
2023-02-15T09:09:24.128Z,3.53
2023-02-15T09:11:57.764Z,3.61
2023-02-15T09:14:28.436Z,3.69
2023-02-15T09:16:56.754Z,3.68
2023-02-15T09:19:25.537Z,3.69
2023-02-15T09:21:53.855Z,3.70
2023-02-15T09:24:22.036Z,3.68
2023-02-15T09:26:50.036Z,3.64
2023-02-15T09:29:19.422Z,3.64
2023-02-15T09:31:50.974Z,3.66
2023-02-15T09:34:21.788Z,3.71
2023-02-15T09:36:50.408Z,3.77
2023-02-15T09:39:28.497Z,3.87
2023-02-15T09:42:11.421Z,4.02
2023-02-15T09:45:18.788Z,4.15
2023-02-15T09:48:09.139Z,4.24
2023-02-15T09:50:55.459Z,4.34
2023-02-15T09:54:07.168Z,4.45
2023-02-15T09:56:53.487Z,4.53
2023-02-15T10:00:01.420Z,4.61
2023-02-15T10:02:52.025Z,4.69
2023-02-15T10:05:29.041Z,4.80
2023-02-15T10:08:05.586Z,4.88
2023-02-15T10:11:31.650Z,4.99
2023-02-15T10:14:40.886Z,5.10
2023-02-15T10:17:41.738Z,5.18
2023-02-15T10:20:12.831Z,5.19
2023-02-15T10:22:43.738Z,5.21
2023-02-15T10:25:27.037Z,5.25
2023-02-15T10:27:54.920Z,5.35
2023-02-15T10:30:35.267Z,5.46
2023-02-15T10:33:11.318Z,5.51
2023-02-15T10:35:59.363Z,5.60
2023-02-15T10:38:39.863Z,5.72
2023-02-15T10:41:10.776Z,5.83
2023-02-15T10:44:13.062Z,5.90
2023-02-15T10:47:00.150Z,5.95
2023-02-15T10:50:07.594Z,6.02
2023-02-15T10:53:01.260Z,6.13
2023-02-15T10:55:35.108Z,6.20
2023-02-15T10:58:21.386Z,6.34
2023-02-15T11:01:01.098Z,6.49
2023-02-15T11:03:47.881Z,6.60
2023-02-15T11:06:22.606Z,6.67
2023-02-15T11:09:02.451Z,6.70
2023-02-15T11:11:36.187Z,6.74
2023-02-15T11:14:11.707Z,6.80
2023-02-15T11:16:45.292Z,6.91
2023-02-15T11:19:23.041Z,6.99
2023-02-15T11:21:56.073Z,7.05
2023-02-15T11:24:29.776Z,7.14
2023-02-15T11:27:03.858Z,7.22
2023-02-15T11:29:39.737Z,7.33
2023-02-15T11:32:28.993Z,7.44
2023-02-15T11:35:11.586Z,7.62
2023-02-15T11:38:02.108Z,7.72
2023-02-15T11:40:33.515Z,7.90
2023-02-15T11:43:07.541Z,8.00
2023-02-15T11:45:36.679Z,8.16
2023-02-15T11:48:11.718Z,8.34
2023-02-15T11:50:40.255Z,8.53
2023-02-15T11:53:16.033Z,8.67
2023-02-15T11:55:50.081Z,8.80
2023-02-15T11:58:40.641Z,8.93
2023-02-15T12:01:18.087Z,9.06
2023-02-15T12:03:56.782Z,9.18
2023-02-15T12:06:30.581Z,9.31
2023-02-15T12:09:28.388Z,9.46
2023-02-15T12:12:23.386Z,9.59
2023-02-15T12:14:54.764Z,9.72
2023-02-15T12:17:26.004Z,9.88
2023-02-15T12:19:57.970Z,10.05
2023-02-15T12:22:32.834Z,10.17
2023-02-15T12:25:05.080Z,10.35
2023-02-15T12:27:36.762Z,10.53
2023-02-15T12:30:17.024Z,10.73
2023-02-15T12:33:01.189Z,10.75
2023-02-15T12:35:32.124Z,10.71
2023-02-15T12:38:22.409Z,10.68
2023-02-15T12:41:00.680Z,10.76
2023-02-15T12:43:37.253Z,10.97
2023-02-15T12:46:20.151Z,11.16
2023-02-15T12:48:52.666Z,11.38
2023-02-15T12:51:20.585Z,11.49
2023-02-15T12:53:48.513Z,11.58
2023-02-15T12:56:28.944Z,11.66
2023-02-15T12:59:06.748Z,11.69
2023-02-15T13:01:34.786Z,11.80
2023-02-15T13:04:06.742Z,11.90
2023-02-15T13:06:36.739Z,11.90
2023-02-15T13:09:16.752Z,12.01
2023-02-15T13:11:46.671Z,12.18
2023-02-15T13:14:21.717Z,12.36
2023-02-15T13:16:53.336Z,12.47
2023-02-15T13:19:34.249Z,12.54
2023-02-15T13:22:07.492Z,12.47
2023-02-15T13:24:40.676Z,12.49
2023-02-15T13:27:19.977Z,12.56
2023-02-15T13:29:54.706Z,12.67
2023-02-15T13:32:33.918Z,12.88
2023-02-15T13:35:06.118Z,13.12
2023-02-15T13:37:52.443Z,13.25
2023-02-15T13:40:51.286Z,13.24
2023-02-15T13:43:54.953Z,13.33
2023-02-15T13:46:47.138Z,13.64
2023-02-15T13:49:23.973Z,13.68
2023-02-15T13:52:00.300Z,13.88
2023-02-15T13:54:51.505Z,14.07
2023-02-15T13:57:24.080Z,14.16
2023-02-15T14:00:28.583Z,14.28
2023-02-15T14:03:31.001Z,14.34
2023-02-15T14:06:14.769Z,14.37
2023-02-15T14:09:23.179Z,14.43
2023-02-15T14:12:25.812Z,14.40
2023-02-15T14:15:12.525Z,14.20
2023-02-15T14:17:55.675Z,14.21
2023-02-15T14:20:35.288Z,14.18
2023-02-15T14:23:28.590Z,14.27
2023-02-15T14:26:07.722Z,14.18
2023-02-15T14:28:47.701Z,14.06
2023-02-15T14:31:17.022Z,13.93
2023-02-15T14:33:56.080Z,13.89
2023-02-15T14:36:26.596Z,14.00
2023-02-15T14:38:57.737Z,14.08
2023-02-15T14:41:40.681Z,14.17
2023-02-15T14:44:08.554Z,14.18
2023-02-15T14:47:07.491Z,14.04
2023-02-15T14:49:39.123Z,13.92
2023-02-15T14:52:09.655Z,13.93
2023-02-15T14:54:37.613Z,13.99
2023-02-15T14:57:08.129Z,13.94
2023-02-15T14:59:57.000Z,13.87
2023-02-15T15:02:41.047Z,13.82
2023-02-15T15:05:30.827Z,13.67
2023-02-15T15:08:01.251Z,13.71
2023-02-15T15:10:37.274Z,13.91
2023-02-15T15:13:33.603Z,14.08
2023-02-15T15:16:38.610Z,14.41
2023-02-15T15:19:51.826Z,14.83
2023-02-15T15:22:28.601Z,15.02
2023-02-15T15:25:10.693Z,15.03
2023-02-15T15:27:55.798Z,15.03
2023-02-15T15:30:23.774Z,14.90
2023-02-15T15:33:00.564Z,14.65
2023-02-15T15:36:13.831Z,14.44
2023-02-15T15:39:19.412Z,14.25
2023-02-15T15:42:05.622Z,14.00
2023-02-15T15:45:01.794Z,13.72
2023-02-15T15:47:51.275Z,13.32
2023-02-15T15:50:22.265Z,12.83
2023-02-15T15:52:58.548Z,12.24
2023-02-15T15:55:30.552Z,11.67
2023-02-15T15:58:04.221Z,11.02
2023-02-15T16:00:41.781Z,10.42
2023-02-15T16:03:27.773Z,9.85
2023-02-15T16:06:01.171Z,9.35
2023-02-15T16:08:39.589Z,8.90
2023-02-15T16:11:31.145Z,8.51
2023-02-15T16:13:59.204Z,8.11
2023-02-15T16:16:30.136Z,7.78
2023-02-15T16:19:00.772Z,7.46
2023-02-15T16:21:33.624Z,7.15
2023-02-15T16:24:20.908Z,6.85
2023-02-15T16:27:07.774Z,6.52
2023-02-15T16:29:35.985Z,6.21
2023-02-15T16:32:06.951Z,5.89
2023-02-15T16:34:35.005Z,5.56
2023-02-15T16:37:15.288Z,5.23
2023-02-15T16:39:44.650Z,4.92
2023-02-15T16:42:15.883Z,4.62
2023-02-15T16:44:46.364Z,4.35
2023-02-15T16:47:25.616Z,4.13
2023-02-15T16:49:56.528Z,3.92
2023-02-15T16:52:27.971Z,3.76
2023-02-15T16:55:00.504Z,3.60
2023-02-15T16:57:33.923Z,3.42
2023-02-15T17:00:24.454Z,3.27
2023-02-15T17:03:01.304Z,3.13
2023-02-15T17:05:41.545Z,3.03
2023-02-15T17:08:20.751Z,2.92
2023-02-15T17:11:06.723Z,2.83
2023-02-15T17:13:34.739Z,2.67
2023-02-15T17:16:03.117Z,2.61
2023-02-15T17:18:40.852Z,2.55
2023-02-15T17:21:25.233Z,2.44
2023-02-15T17:24:01.429Z,2.27
2023-02-15T17:26:36.455Z,2.09
2023-02-15T17:29:38.555Z,1.95
2023-02-15T17:32:17.821Z,1.80
2023-02-15T17:34:48.878Z,1.71
2023-02-15T17:37:29.188Z,1.60
2023-02-15T17:39:58.662Z,1.49
2023-02-15T17:42:27.109Z,1.40
2023-02-15T17:44:55.259Z,1.30
2023-02-15T17:47:27.812Z,1.24
2023-02-15T17:49:56.222Z,1.23
2023-02-15T17:52:29.217Z,1.22
2023-02-15T17:55:16.064Z,1.22
2023-02-15T17:57:46.578Z,1.13
2023-02-15T18:00:34.052Z,1.00
2023-02-15T18:03:20.733Z,0.85
2023-02-15T18:06:07.595Z,0.80
2023-02-15T18:08:54.455Z,0.75
2023-02-15T18:11:38.157Z,0.74
2023-02-15T18:14:09.481Z,0.66
2023-02-15T18:16:43.614Z,0.58
2023-02-15T18:19:27.467Z,0.52
2023-02-15T18:21:57.836Z,0.46
2023-02-15T18:24:27.077Z,0.37
2023-02-15T18:26:55.820Z,0.33
2023-02-15T18:29:23.806Z,0.31
2023-02-15T18:31:56.106Z,0.30
2023-02-15T18:34:32.458Z,0.27
2023-02-15T18:37:05.873Z,0.21
2023-02-15T18:39:40.286Z,0.10
2023-02-15T18:42:23.009Z,-0.04
2023-02-15T18:44:56.569Z,-0.14
2023-02-15T18:47:27.491Z,-0.22
2023-02-15T18:49:55.980Z,-0.27
2023-02-15T18:52:31.461Z,-0.30
2023-02-15T18:55:02.650Z,-0.29
2023-02-15T18:57:31.283Z,-0.21
2023-02-15T19:00:00.684Z,-0.21
2023-02-15T19:02:28.739Z,-0.24
2023-02-15T19:04:56.853Z,-0.30
2023-02-15T19:07:28.451Z,-0.35
2023-02-15T19:10:00.264Z,-0.40
2023-02-15T19:12:29.201Z,-0.49
2023-02-15T19:14:57.714Z,-0.56
2023-02-15T19:17:28.850Z,-0.54
2023-02-15T19:19:56.738Z,-0.52
2023-02-15T19:22:32.167Z,-0.52
2023-02-15T19:25:05.558Z,-0.53
2023-02-15T19:27:38.672Z,-0.52
2023-02-15T19:30:42.498Z,-0.52
2023-02-15T19:33:17.191Z,-0.59
2023-02-15T19:35:51.936Z,-0.62
2023-02-15T19:38:24.266Z,-0.67
2023-02-15T19:40:55.530Z,-0.72
2023-02-15T19:43:26.193Z,-0.71
2023-02-15T19:45:55.071Z,-0.70
2023-02-15T19:48:23.233Z,-0.64
2023-02-15T19:50:52.812Z,-0.63
2023-02-15T19:53:26.534Z,-0.63
2023-02-15T19:55:57.779Z,-0.66
2023-02-15T19:58:25.668Z,-0.77
2023-02-15T20:00:53.684Z,-0.84
2023-02-15T20:03:22.082Z,-0.89
2023-02-15T20:06:16.042Z,-0.94
2023-02-15T20:09:25.614Z,-0.98
2023-02-15T20:11:53.760Z,-1.06
2023-02-15T20:14:23.088Z,-1.12
2023-02-15T20:16:51.488Z,-1.15
2023-02-15T20:19:19.559Z,-1.07
2023-02-15T20:21:55.100Z,-0.83
2023-02-15T20:24:32.664Z,-0.59
2023-02-15T20:27:00.770Z,-0.45
2023-02-15T20:29:28.841Z,-0.39
2023-02-15T20:32:01.164Z,-0.39
2023-02-15T20:34:29.241Z,-0.45
2023-02-15T20:36:57.263Z,-0.55
2023-02-15T20:39:25.193Z,-0.62
2023-02-15T20:41:53.148Z,-0.71
2023-02-15T20:44:31.348Z,-0.76
2023-02-15T20:47:00.513Z,-0.83
2023-02-15T20:49:28.690Z,-0.89
2023-02-15T20:51:57.480Z,-0.96
2023-02-15T20:54:29.141Z,-1.03
2023-02-15T20:56:57.487Z,-1.11
2023-02-15T20:59:32.080Z,-1.20
2023-02-15T21:05:33.532Z,-1.31
2023-02-15T21:08:01.934Z,-1.33
2023-02-15T21:10:33.199Z,-1.35
2023-02-15T21:13:01.567Z,-1.38
2023-02-15T21:15:39.945Z,-1.44
2023-02-15T21:18:23.973Z,-1.44
2023-02-15T21:20:57.921Z,-1.42
2023-02-15T21:23:40.763Z,-1.41
2023-02-15T21:26:23.076Z,-1.39
2023-02-15T21:28:50.998Z,-1.39
2023-02-15T21:31:22.728Z,-1.36
2023-02-15T21:33:51.353Z,-1.28
2023-02-15T21:36:23.591Z,-1.18
2023-02-15T21:38:53.831Z,-1.10
2023-02-15T21:41:45.232Z,-1.00
2023-02-15T21:44:39.361Z,-0.96
2023-02-15T21:47:40.912Z,-0.98
2023-02-15T21:50:40.811Z,-1.06
2023-02-15T21:53:22.538Z,-1.15
2023-02-15T21:55:55.019Z,-1.23
2023-02-15T21:58:26.466Z,-1.22
2023-02-15T22:00:57.761Z,-1.24
2023-02-15T22:03:31.224Z,-1.23
2023-02-15T22:05:59.337Z,-1.16
2023-02-15T22:08:27.298Z,-1.06
2023-02-15T22:10:56.464Z,-0.96
2023-02-15T22:13:31.186Z,-0.87
2023-02-15T22:15:59.621Z,-0.80
2023-02-15T22:18:33.567Z,-0.74
2023-02-15T22:21:03.881Z,-0.70
2023-02-15T22:23:32.369Z,-0.68
2023-02-15T22:26:07.635Z,-0.76
2023-02-15T22:28:38.707Z,-0.89
2023-02-15T22:31:12.700Z,-0.98
2023-02-15T22:33:41.262Z,-1.08
2023-02-15T22:36:26.002Z,-1.20
2023-02-15T22:38:54.298Z,-1.15
2023-02-15T22:41:29.013Z,-1.10
2023-02-15T22:43:57.665Z,-1.20
2023-02-15T22:46:26.378Z,-1.17
2023-02-15T22:48:54.540Z,-1.11
2023-02-15T22:51:24.840Z,-1.09
2023-02-15T22:53:53.876Z,-1.07
2023-02-15T22:56:54.753Z,-1.07
2023-02-15T22:59:28.954Z,-1.09
2023-02-15T23:01:57.578Z,-1.19
2023-02-15T23:04:28.191Z,-1.33
2023-02-15T23:07:03.892Z,-1.52
2023-02-15T23:09:31.816Z,-1.67
2023-02-15T23:11:59.922Z,-1.78
2023-02-15T23:14:35.409Z,-1.83
2023-02-15T23:17:03.484Z,-1.84
2023-02-15T23:19:32.307Z,-1.81
2023-02-15T23:22:10.969Z,-1.76
2023-02-15T23:24:39.244Z,-1.75
2023-02-15T23:27:25.832Z,-1.80
2023-02-15T23:29:53.791Z,-1.95
2023-02-15T23:32:22.275Z,-1.94
2023-02-15T23:34:50.194Z,-1.90
2023-02-15T23:37:18.123Z,-1.99
2023-02-15T23:40:04.593Z,-2.07
2023-02-15T23:42:35.119Z,-2.13
2023-02-15T23:45:03.939Z,-2.19
2023-02-15T23:47:52.625Z,-2.23
2023-02-15T23:50:24.636Z,-2.24
2023-02-15T23:52:54.193Z,-2.20
2023-02-15T23:55:24.980Z,-2.17
2023-02-15T23:57:53.715Z,-2.15
